Flight Track Log - Related Links

Times and Time Zones

All times are in EDT time to prevent confusion due to time zone crossing. See the AAL2218 flight status page for this flight to view local times or setup timezone preferences in your user account.

Time Position Orientation Groundspeed Altitude Reporting Facility
EDT Latitude Longitude Course Direction KTS MPH feet Rate Location/Type
Mon 05:36:00 PM 38.0678 -105.8735 124° Southeast  Level FlightAware Approximate
Mon 05:37:00 PM 38.0009 -105.7493 124° Southeast  Level FlightAware Approximate
Mon 05:38:00 PM 37.9405 -105.6201 119° Southeast  Level FlightAware Approximate
Mon 05:39:00 PM 37.8845 -105.4916 118° Southeast  Level FlightAware Approximate
Mon 05:40:00 PM 37.8272 -105.3842 127° Southeast  Level FlightAware Approximate
Mon 05:41:00 PM 37.7808 -105.2710 120° Southeast  Level FlightAware Approximate
Mon 05:42:00 PM 37.7294 -105.1588 122° Southeast  Level FlightAware Approximate
Mon 05:43:00 PM 37.6747 -105.0492 122° Southeast  Level FlightAware Approximate
Mon 05:43:33 PM 38.4219 -106.9108 122° Southeast 371 427 19,200  Level Denver Center
Mon 05:44:00 PM 37.6199 -104.9397 122° Southeast  Level FlightAware Approximate
Mon 05:44:35 PM 38.3781 -106.7939 116° Southeast 369 425 22,200  Level Denver Center
Mon 05:45:00 PM 37.5664 -104.8292 121° Southeast  Level FlightAware Approximate
Mon 05:45:37 PM 38.3206 -106.6656 120° Southeast 388 447 24,100  Level Denver Center
Mon 05:46:00 PM 37.5137 -104.7183 121° Southeast  Level FlightAware Approximate
Mon 05:46:39 PM 38.2625 -106.5336 119° Southeast 448 516 25,200  Level Denver Center
Mon 05:47:00 PM 37.4608 -104.6075 121° Southeast  Level FlightAware Approximate
Mon 05:47:41 PM 38.1989 -106.3864 119° Southeast 485 558 27,000  Level Denver Center
Mon 05:48:00 PM 37.4071 -104.4975 122° Southeast  Level FlightAware Approximate
Mon 05:48:43 PM 38.1311 -106.2353 120° Southeast 493 567 28,800  Level Denver Center
Mon 05:49:45 PM 38.0478 -106.0447 119° Southeast 515 593 30,700 1,065 Climbing Denver Center
Mon 05:50:47 PM 37.9786 -105.8911 120° Southeast 523 602 31,000 145 Climbing Denver Center
Mon 05:51:49 PM 37.8981 -105.7131 120° Southeast 521 600 31,000 484 Level Denver Center
Mon 05:52:51 PM 37.8283 -105.5614 120° Southeast 520 598 32,000 1,258 Climbing Denver Center
Mon 05:53:53 PM 37.7597 -105.4089 120° Southeast 524 603 33,600 2,049 Climbing Denver Center
Mon 05:54:54 PM 37.6797 -105.2322 120° Southeast 520 598 36,200 1,659 Climbing Denver Center
Mon 05:55:56 PM 37.6122 -105.0858 120° Southeast 508 585 37,000 1,210 Climbing Denver Center
Mon 05:56:58 PM 37.5328 -104.9125 120° Southeast 512 589 38,700 968 Climbing Denver Center
Mon 05:58:00 PM 37.4653 -104.7689 121° Southeast 502 578 39,000 145 Climbing Denver Center
Mon 05:59:02 PM 37.3856 -104.5981 120° Southeast 507 583 39,000  Level Denver Center
Mon 06:00:04 PM 37.3183 -104.4547 120° Southeast 503 579 39,000  Level Denver Center
Mon 06:01:06 PM 37.2389 -104.2856 120° Southeast 506 582 39,000  Level Denver Center
Mon 06:02:07 PM 37.1708 -104.1411 121° Southeast 507 583 39,000  Level Denver Center
Mon 06:03:01 PM 37.1028 -103.9950 120° Southeast 507 583 39,000  Level Albuquerque Center
Mon 06:04:03 PM 37.0333 -103.8525 121° Southeast 505 581 39,000  Level Albuquerque Center
Mon 06:05:05 PM 36.9528 -103.6847 121° Southeast 505 581 39,000  Level Albuquerque Center
Mon 06:06:07 PM 36.8831 -103.5408 121° Southeast 507 583 39,000  Level Albuquerque Center
Mon 06:07:08 PM 36.8019 -103.3725 121° Southeast 507 583 39,000  Level Albuquerque Center
Mon 06:08:10 PM 36.7314 -103.2294 122° Southeast 507 583 39,000  Level Albuquerque Center
Mon 06:09:12 PM 36.6503 -103.0622 121° Southeast 505 581 39,000  Level Albuquerque Center
Mon 06:10:14 PM 36.5803 -102.9197 121° Southeast 507 583 39,000  Level Albuquerque Center
Mon 06:11:15 PM 36.5064 -102.7686 121° Southeast 511 588 39,000  Level Albuquerque Center
Mon 06:12:17 PM 36.4311 -102.6197 122° Southeast 510 587 39,000  Level Albuquerque Center
Mon 06:13:19 PM 36.3578 -102.4681 121° Southeast 512 589 39,000  Level Albuquerque Center
Mon 06:14:21 PM 36.2672 -102.2889 122° Southeast 512 589 39,000  Level Albuquerque Center
Mon 06:15:23 PM 36.1931 -102.1392 122° Southeast 511 588 39,000  Level Albuquerque Center
Mon 06:16:25 PM 36.1161 -101.9875 122° Southeast 515 593 39,000  Level Albuquerque Center
Mon 06:17:26 PM 36.0400 -101.8369 122° Southeast 516 594 39,000  Level Albuquerque Center
Mon 06:18:28 PM 35.9633 -101.6867 122° Southeast 516 594 39,000  Level Albuquerque Center
Mon 06:19:30 PM 35.8858 -101.5358 122° Southeast 517 595 39,000  Level Albuquerque Center
Mon 06:20:32 PM 35.8083 -101.3844 122° Southeast 519 597 39,000  Level Albuquerque Center
Mon 06:21:34 PM 35.7042 -101.2167 127° Southeast 514 592 39,000  Level Albuquerque Center
Mon 06:22:35 PM 35.6158 -101.0794 128° Southeast 508 585 39,000  Level Albuquerque Center
Mon 06:23:37 PM 35.5294 -100.9417 128° Southeast 508 585 39,000  Level Albuquerque Center
Mon 06:24:39 PM 35.4456 -100.8036 127° Southeast 505 581 39,000  Level Albuquerque Center
Mon 06:25:41 PM 35.3608 -100.6653 127° Southeast 505 581 39,000  Level Albuquerque Center
Mon 06:26:43 PM 35.2800 -100.5325 127° Southeast 505 581 39,000  Level Albuquerque Center
Mon 06:27:44 PM 35.1967 -100.3978 127° Southeast 500 575 39,000  Level Albuquerque Center
Mon 06:28:46 PM 35.0953 -100.2350 127° Southeast 500 575 39,000  Level Albuquerque Center
Mon 06:29:48 PM 35.0097 -100.0997 128° Southeast 503 579 39,000  Level Albuquerque Center
Mon 06:30:50 PM 34.9261 -99.9644 127° Southeast 501 577 39,000  Level Albuquerque Center
Mon 06:31:39 PM 34.8567 -99.8603 129° Southeast 502 578 39,000  Level Fort Worth Center
Mon 06:32:39 PM 34.7717 -99.7264 128° Southeast 497 572 39,000 -100 Level Fort Worth Center
Mon 06:33:39 PM 34.6883 -99.5928 127° Southeast 497 572 38,800 -700 Descending Fort Worth Center
Mon 06:34:39 PM 34.6031 -99.4569 127° Southeast 497 572 37,600 -1,150 Descending Fort Worth Center
Mon 06:35:39 PM 34.5175 -99.3239 128° Southeast 497 572 36,500 -1,150 Descending Fort Worth Center
Mon 06:36:39 PM 34.4278 -99.1836 128° Southeast 490 564 35,300 -1,450 Descending Fort Worth Center
Mon 06:37:39 PM 34.3461 -99.0586 128° Southeast 482 555 33,600 1,850 Descending Fort Worth Center
Mon 06:38:39 PM 34.2622 -98.9339 129° Southeast 475 547 39,000 -1,900 Climbing Fort Worth Center
Mon 06:39:39 PM 34.1803 -98.8017 127° Southeast 480 552 29,800 -6,050 Descending Fort Worth Center
Mon 06:40:39 PM 34.0939 -98.6725 129° Southeast 487 560 26,900 -2,100 Descending Fort Worth Center
Mon 06:41:39 PM 34.0117 -98.5436 128° Southeast 488 562 25,600 -1,500 Descending Fort Worth Center
Mon 06:42:39 PM 33.9375 -98.4250 127° Southeast 453 521 23,900 -1,800 Descending Fort Worth Center
Mon 06:43:39 PM 33.8611 -98.3114 129° Southeast 435 501 22,000 -1,650 Descending Fort Worth Center
Mon 06:44:39 PM 33.7950 -98.2133 129° Southeast 435 501 20,600 -1,650 Descending Fort Worth Center
Mon 06:45:39 PM 33.7247 -98.1053 128° Southeast 424 488 18,700 -2,200 Descending Fort Worth Center
Mon 06:46:39 PM 33.6522 -98.0047 131° Southeast 407 468 16,200 -2,250 Descending Fort Worth Center
Mon 06:47:39 PM 33.5797 -97.9072 132° Southeast 399 459 14,200 -2,050 Descending Fort Worth Center
Mon 06:48:39 PM 33.4986 -97.8019 133° Southeast 393 452 12,100 -1,900 Descending Fort Worth Center
Mon 06:49:39 PM 33.4403 -97.7197 130° Southeast 371 427 10,400 -1,150 Descending Fort Worth Center
Mon 06:50:39 PM 33.3758 -97.6325 131° Southeast 329 379 9,800 -950 Descending Fort Worth Center
Mon 06:51:39 PM 33.3258 -97.5528 127° Southeast 308 354 8,500 -1,300 Descending Fort Worth Center
Mon 06:52:39 PM 33.2864 -97.4831 124° Southeast 288 331 7,200 -1,300 Descending Fort Worth Center
Mon 06:53:39 PM 33.2383 -97.4011 125° Southeast 283 326 5,900 -1,100 Descending Fort Worth Center
Mon 06:54:39 PM 33.2008 -97.3364 125° Southeast 273 314 5,000 -450 Descending Fort Worth Center
Mon 06:55:39 PM 33.1569 -97.2619 125° Southeast 263 303 5,000  Level Fort Worth Center
Mon 06:56:39 PM 33.1233 -97.2000 123° Southeast 253 291 5,000 -350 Level Fort Worth Center
Mon 06:57:39 PM 33.0836 -97.1333 125° Southeast 237 273 4,300 -667 Descending Fort Worth Center
Mon 06:58:09 PM 33.0667 -97.1000 121° Southeast 216 249 4,000 -600 Descending Dallas / Fort Worth TRACON

Login

Don't have an account? Register now (free) for customized features, flight alerts, and more!